Time;durP1;ratioP1;P1;durP2;ratioP2;P2;SDS_P1;SDS_P2;PMS_P1;PMS_P2;Temp;Humidity;BMP_temperature;BMP_pressure;BME280_temperature;BME280_humidity;BME280_pressure;Samples;Min_cycle;Max_cycle;Signal;HPM_P1;HPM_P2
2022/07/06 00:01:53;;;;;;;13.58;10.23;;;;;;;20.22;71.00;100739.34;1803413;77;20865;-84
2022/07/06 00:04:20;;;;;;;10.75;9.28;;;;;;;20.21;71.01;100734.52;1799666;77;21118;-85
2022/07/06 00:06:49;;;;;;;13.40;9.90;;;;;;;20.19;71.00;100727.17;1815923;79;20845;-86
2022/07/06 00:09:15;;;;;;;11.22;9.78;;;;;;;20.18;71.10;100730.81;1806420;77;21377;-86
2022/07/06 00:11:44;;;;;;;12.85;9.55;;;;;;;20.15;71.19;100735.12;1805769;78;20908;-85
2022/07/06 00:14:11;;;;;;;12.05;9.08;;;;;;;20.13;71.30;100734.94;1802332;77;20994;-85
2022/07/06 00:16:38;;;;;;;9.93;8.83;;;;;;;20.09;71.42;100729.89;1794882;77;21215;-85
2022/07/06 00:19:05;;;;;;;11.28;10.08;;;;;;;20.06;71.51;100721.39;1793945;78;20802;-84
2022/07/06 00:21:32;;;;;;;12.20;9.63;;;;;;;20.02;71.61;100719.51;1811004;79;20889;-85
2022/07/06 00:23:59;;;;;;;10.60;9.40;;;;;;;20.01;71.80;100727.64;1786569;77;20943;-85
2022/07/06 00:26:27;;;;;;;10.65;9.58;;;;;;;19.98;71.95;100722.13;1781494;77;20974;-84
2022/07/06 00:28:54;;;;;;;15.78;10.50;;;;;;;19.94;72.21;100718.59;1780575;77;21196;-85
2022/07/06 00:31:21;;;;;;;12.13;9.88;;;;;;;19.91;72.39;100724.22;1802497;79;20928;-84
2022/07/06 00:33:48;;;;;;;10.43;9.30;;;;;;;19.87;72.45;100724.50;1799329;77;20946;-85
2022/07/06 00:36:15;;;;;;;13.35;9.90;;;;;;;19.84;72.55;100723.48;1799803;77;20914;-85
2022/07/06 00:38:42;;;;;;;10.25;8.98;;;;;;;19.81;72.66;100725.59;1800945;78;20920;-85
2022/07/06 00:41:09;;;;;;;10.88;9.75;;;;;;;19.78;72.79;100724.07;1802977;78;21130;-86
2022/07/06 00:43:50;;;;;;;10.88;9.85;;;;;;;19.76;72.90;100721.22;1804052;77;20896;-85
2022/07/06 00:46:17;;;;;;;12.25;9.33;;;;;;;19.74;72.89;100725.86;1793372;77;20890;-85
2022/07/06 00:48:44;;;;;;;11.08;10.00;;;;;;;19.70;72.89;100716.02;1793308;80;20985;-85
2022/07/06 00:51:11;;;;;;;10.43;9.38;;;;;;;19.68;72.88;100723.28;1802997;77;20927;-84
2022/07/06 00:53:38;;;;;;;12.43;9.53;;;;;;;19.65;72.95;100713.78;1797491;77;21096;-85
2022/07/06 00:56:05;;;;;;;10.50;9.45;;;;;;;19.63;73.00;100719.73;1805118;77;20881;-86
2022/07/06 00:58:32;;;;;;;13.93;9.85;;;;;;;19.61;72.95;100720.88;1792565;77;20986;-85
2022/07/06 01:01:00;;;;;;;11.45;10.18;;;;;;;19.58;72.99;100719.33;1794179;77;20911;-85
2022/07/06 01:03:27;;;;;;;10.38;9.33;;;;;;;19.57;73.01;100722.16;1791603;78;20871;-83
2022/07/06 01:05:54;;;;;;;10.58;9.48;;;;;;;19.55;72.99;100719.63;1785755;77;21208;-85
2022/07/06 01:08:20;;;;;;;10.10;9.20;;;;;;;19.54;73.05;100721.09;1805507;79;20979;-85
2022/07/06 01:10:47;;;;;;;10.65;9.65;;;;;;;19.52;72.94;100715.95;1810419;79;20912;-85
2022/07/06 01:13:14;;;;;;;11.63;9.75;;;;;;;19.49;72.91;100719.38;1810539;79;20857;-85
2022/07/06 01:15:41;;;;;;;11.48;9.43;;;;;;;19.47;72.94;100719.52;1792981;77;20973;-85
2022/07/06 01:18:11;;;;;;;10.82;8.85;;;;;;;19.45;72.91;100720.16;1804977;77;21134;-85
2022/07/06 01:20:38;;;;;;;9.73;8.88;;;;;;;19.42;72.99;100725.78;1800027;77;20893;-85
2022/07/06 01:23:05;;;;;;;9.38;8.48;;;;;;;19.40;73.11;100725.92;1791119;77;21439;-84
2022/07/06 01:25:33;;;;;;;9.75;8.85;;;;;;;19.39;73.10;100730.91;1794601;80;20966;-85
2022/07/06 01:28:00;;;;;;;9.40;8.53;;;;;;;19.34;73.32;100726.53;1803731;77;20817;-86
2022/07/06 01:30:27;;;;;;;20.57;12.98;;;;;;;19.34;73.33;100732.31;1811221;79;21068;-85
2022/07/06 01:32:54;;;;;;;39.05;23.42;;;;;;;19.33;73.41;100731.48;1808494;77;20897;-84
2022/07/06 01:35:21;;;;;;;37.85;23.55;;;;;;;19.31;73.48;100739.27;1776994;80;20959;-84
2022/07/06 01:37:48;;;;;;;30.75;19.42;;;;;;;19.31;73.65;100740.60;1759149;80;20972;-86
2022/07/06 01:40:15;;;;;;;24.02;17.12;;;;;;;19.29;73.71;100733.26;1723297;81;20916;-85
2022/07/06 01:42:42;;;;;;;26.33;17.17;;;;;;;19.24;73.90;100738.52;1774838;79;21846;-86
2022/07/06 01:45:10;;;;;;;22.02;15.90;;;;;;;19.22;74.06;100740.48;1777566;80;20911;-85
2022/07/06 01:47:37;;;;;;;21.50;13.58;;;;;;;19.19;74.18;100743.94;1796320;77;20843;-84
2022/07/06 01:50:07;;;;;;;22.75;13.95;;;;;;;19.16;74.29;100745.54;1809787;79;20881;-85
2022/07/06 01:52:35;;;;;;;14.60;11.60;;;;;;;19.13;74.45;100741.85;1802219;77;20886;-84
2022/07/06 01:55:05;;;;;;;15.20;11.50;;;;;;;19.11;74.55;100741.16;1804299;79;21223;-84
2022/07/06 01:57:33;;;;;;;13.48;9.95;;;;;;;19.09;74.67;100745.28;1798766;77;20934;-85
2022/07/06 02:00:01;;;;;;;9.90;9.00;;;;;;;19.08;74.74;100744.12;1801218;77;20960;-84
2022/07/06 02:02:29;;;;;;;9.50;8.60;;;;;;;19.06;74.71;100734.95;1799117;77;20857;-84
2022/07/06 02:04:56;;;;;;;10.40;9.45;;;;;;;19.03;74.58;100736.08;1791073;77;21707;-87
2022/07/06 02:07:23;;;;;;;9.80;8.83;;;;;;;19.00;74.52;100740.33;1798557;79;21116;-83
2022/07/06 02:09:50;;;;;;;10.38;8.90;;;;;;;18.99;74.44;100738.67;1810335;79;20829;-85
2022/07/06 02:12:19;;;;;;;10.28;9.18;;;;;;;19.00;74.32;100743.48;1811961;78;20896;-84
2022/07/06 02:14:46;;;;;;;11.65;8.60;;;;;;;18.99;74.24;100747.98;1798405;77;21360;-84
2022/07/06 02:17:13;;;;;;;11.88;8.65;;;;;;;18.98;74.25;100746.28;1799573;79;20896;-85
2022/07/06 02:19:40;;;;;;;9.78;8.83;;;;;;;18.98;74.23;100746.78;1811393;79;21252;-84
2022/07/06 02:22:07;;;;;;;10.48;8.78;;;;;;;18.98;74.22;100740.13;1806919;77;20861;-85
2022/07/06 02:24:35;;;;;;;10.48;8.43;;;;;;;18.98;74.28;100742.30;1808029;77;21362;-85
2022/07/06 02:27:02;;;;;;;9.23;8.43;;;;;;;18.98;74.36;100740.97;1807285;78;20901;-86
2022/07/06 02:29:30;;;;;;;16.25;9.75;;;;;;;19.00;74.39;100741.66;1802999;77;20849;-85
2022/07/06 02:31:57;;;;;;;10.45;9.25;;;;;;;19.02;74.34;100744.19;1799110;77;21273;-85
2022/07/06 02:34:25;;;;;;;11.95;9.63;;;;;;;19.02;74.27;100739.70;1810875;79;20900;-85
2022/07/06 02:36:53;;;;;;;10.20;8.88;;;;;;;19.04;74.25;100746.22;1796298;77;20904;-84
2022/07/06 02:39:20;;;;;;;14.63;9.65;;;;;;;19.06;74.24;100745.58;1801623;77;21113;-85
2022/07/06 02:41:47;;;;;;;13.88;9.75;;;;;;;19.08;74.26;100756.08;1810364;77;20829;-84
2022/07/06 02:44:14;;;;;;;10.38;9.35;;;;;;;19.09;74.27;100744.45;1809991;77;21162;-85
2022/07/06 02:46:41;;;;;;;10.08;9.08;;;;;;;19.10;74.24;100748.30;1799648;77;21551;-85
2022/07/06 02:49:08;;;;;;;10.00;9.00;;;;;;;19.10;74.23;100740.33;1785061;78;20864;-85
2022/07/06 02:51:35;;;;;;;9.93;8.90;;;;;;;19.12;74.26;100751.66;1783496;77;20883;-84
2022/07/06 02:54:02;;;;;;;10.63;8.98;;;;;;;19.14;74.30;100746.17;1794426;78;20908;-81
2022/07/06 02:56:30;;;;;;;9.73;8.58;;;;;;;19.15;74.31;100750.03;1797701;77;21146;-84
2022/07/06 02:58:58;;;;;;;9.15;8.30;;;;;;;19.16;74.42;100747.70;1794973;77;20886;-84
2022/07/06 03:01:25;;;;;;;43.30;22.98;;;;;;;19.19;74.65;100743.44;1794440;77;20857;-82
2022/07/06 03:03:53;;;;;;;20.17;10.25;;;;;;;19.22;74.87;100749.78;1813487;77;21007;-82
2022/07/06 03:06:20;;;;;;;11.60;10.40;;;;;;;19.24;75.16;100743.00;1813123;78;20857;-83
2022/07/06 03:08:47;;;;;;;11.40;9.28;;;;;;;19.26;75.31;100743.20;1806414;78;21260;-83
2022/07/06 03:11:15;;;;;;;15.75;10.98;;;;;;;19.30;75.41;100750.41;1804006;77;20869;-82
2022/07/06 03:13:42;;;;;;;13.38;9.93;;;;;;;19.34;75.44;100743.82;1805381;77;20931;-84
2022/07/06 03:16:11;;;;;;;13.98;10.53;;;;;;;19.39;75.15;100747.37;1806051;77;21472;-84
2022/07/06 03:18:37;;;;;;;10.93;9.75;;;;;;;19.43;74.73;100748.72;1807099;77;20813;-85
2022/07/06 03:21:06;;;;;;;13.65;10.45;;;;;;;19.46;74.32;100746.63;1797933;77;21235;-86
2022/07/06 03:23:33;;;;;;;12.07;10.80;;;;;;;19.51;74.13;100747.51;1804461;77;20896;-86
2022/07/06 03:26:00;;;;;;;23.62;11.33;;;;;;;19.58;73.92;100749.92;1814870;79;21334;-86
2022/07/06 03:28:28;;;;;;;15.40;11.00;;;;;;;19.64;73.75;100752.00;1792879;77;20973;-85
2022/07/06 03:30:57;;;;;;;20.17;11.65;;;;;;;19.73;73.54;100758.29;1799265;79;20877;-86
2022/07/06 03:33:24;;;;;;;15.65;11.60;;;;;;;19.79;73.39;100752.37;1800050;77;21227;-87
2022/07/06 03:35:53;;;;;;;20.60;11.30;;;;;;;19.86;73.27;100756.61;1789163;77;21378;-87
2022/07/06 03:38:20;;;;;;;16.32;11.65;;;;;;;19.93;73.10;100748.87;1805035;78;21033;-85
2022/07/06 03:40:47;;;;;;;16.25;11.33;;;;;;;20.00;73.02;100748.11;1790460;77;21353;-87
2022/07/06 03:43:14;;;;;;;15.90;11.57;;;;;;;20.08;73.05;100749.53;1789158;78;20864;-86
2022/07/06 03:45:42;;;;;;;14.53;11.00;;;;;;;20.17;73.17;100752.28;1797306;77;21232;-86
2022/07/06 03:48:09;;;;;;;16.87;11.05;;;;;;;20.25;73.25;100753.20;1810028;79;20876;-87
2022/07/06 03:50:38;;;;;;;18.67;11.73;;;;;;;20.33;73.31;100752.43;1810702;79;20895;-86
2022/07/06 03:53:05;;;;;;;14.83;11.73;;;;;;;20.43;73.43;100754.53;1809248;78;20904;-87
2022/07/06 03:55:33;;;;;;;14.05;10.82;;;;;;;20.52;73.50;100754.11;1795105;77;21456;-86
2022/07/06 03:58:03;;;;;;;18.25;12.10;;;;;;;20.61;73.58;100753.69;1790920;77;21246;-85
2022/07/06 04:00:30;;;;;;;10.88;9.78;;;;;;;20.72;73.61;100752.14;1798981;77;20809;-86
2022/07/06 04:02:58;;;;;;;15.98;11.83;;;;;;;20.82;73.70;100749.37;1810367;79;20818;-86
2022/07/06 04:05:27;;;;;;;13.80;10.20;;;;;;;20.93;73.89;100745.62;1787924;77;20938;-85
2022/07/06 04:07:54;;;;;;;15.48;11.20;;;;;;;21.05;73.98;100743.84;1797921;78;20888;-87
2022/07/06 04:10:24;;;;;;;12.90;10.93;;;;;;;21.19;74.09;100753.11;1805969;77;21264;-85
2022/07/06 04:12:51;;;;;;;16.57;11.35;;;;;;;21.32;74.23;100746.85;1773842;80;21637;-87
2022/07/06 04:15:19;;;;;;;15.75;12.23;;;;;;;21.50;74.34;100752.64;1772041;80;20892;-87
2022/07/06 04:17:52;;;;;;;13.98;10.95;;;;;;;21.81;74.45;100750.25;1731470;80;20912;-87
2022/07/06 04:20:23;;;;;;;16.03;11.13;;;;;;;22.67;72.78;100740.19;1776348;80;20883;-87
2022/07/06 04:22:51;;;;;;;16.05;11.43;;;;;;;22.67;72.78;100740.19;1777918;79;21873;-88
2022/07/06 04:25:18;;;;;;;12.18;10.82;;;;;;;23.24;71.68;100741.46;1802433;77;20891;-87
2022/07/06 04:27:45;;;;;;;17.05;10.82;;;;;;;23.88;69.76;100741.39;1809271;77;20920;-86
2022/07/06 04:30:14;;;;;;;21.68;11.03;;;;;;;24.53;68.10;100742.80;1810662;79;20936;-87
2022/07/06 04:32:42;;;;;;;21.52;11.15;;;;;;;25.16;66.27;100733.95;1793082;77;20938;-85
2022/07/06 04:35:10;;;;;;;13.80;10.05;;;;;;;25.76;64.50;100742.81;1793506;77;21098;-86
2022/07/06 04:37:39;;;;;;;21.73;10.55;;;;;;;26.36;62.93;100739.96;1808371;79;20847;-85
2022/07/06 04:40:07;;;;;;;20.65;10.38;;;;;;;26.88;61.27;100730.70;1810845;79;21390;-86
2022/07/06 04:42:35;;;;;;;18.67;9.28;;;;;;;27.45;59.73;100730.10;1799210;77;20936;-85
2022/07/06 04:45:04;;;;;;;14.78;9.65;;;;;;;28.02;58.21;100732.09;1784564;77;20856;-86
2022/07/06 04:47:31;;;;;;;17.40;9.48;;;;;;;28.53;56.78;100732.91;1782264;77;21093;-86
2022/07/06 04:49:58;;;;;;;15.95;9.68;;;;;;;29.02;55.40;100733.48;1802570;77;20926;-86
2022/07/06 04:52:25;;;;;;;10.93;9.83;;;;;;;29.48;53.93;100730.67;1788569;77;20887;-86
2022/07/06 04:54:54;;;;;;;13.25;9.53;;;;;;;29.98;52.72;100728.66;1808502;77;21382;-86
2022/07/06 04:57:21;;;;;;;18.52;11.78;;;;;;;30.41;51.27;100728.50;1783428;79;20922;-84
2022/07/06 04:59:48;;;;;;;25.77;12.40;;;;;;;30.79;50.64;100729.70;1810274;77;21215;-88
2022/07/06 05:02:15;;;;;;;28.17;14.78;;;;;;;31.08;50.11;100725.51;1810503;79;20940;-86
2022/07/06 05:04:42;;;;;;;17.05;14.40;;;;;;;31.37;49.13;100726.62;1797573;77;20900;-87
2022/07/06 05:07:09;;;;;;;18.48;14.90;;;;;;;31.62;48.30;100729.78;1789221;78;21427;-86
2022/07/06 05:09:36;;;;;;;16.70;14.73;;;;;;;31.85;47.48;100719.55;1798252;79;20801;-85
2022/07/06 05:12:04;;;;;;;21.05;16.07;;;;;;;32.11;46.68;100729.76;1780353;79;21145;-85
2022/07/06 05:14:32;;;;;;;19.77;14.55;;;;;;;32.37;45.90;100723.06;1798033;78;21421;-86
2022/07/06 05:16:59;;;;;;;21.42;15.08;;;;;;;32.53;45.17;100722.41;1810362;79;20849;-87
2022/07/06 05:19:26;;;;;;;16.05;14.05;;;;;;;32.65;44.63;100722.95;1811946;77;20829;-87
2022/07/06 05:21:53;;;;;;;25.23;15.08;;;;;;;32.83;44.38;100724.17;1798455;78;20956;-87
2022/07/06 05:24:20;;;;;;;17.40;14.53;;;;;;;33.08;43.51;100723.94;1803074;77;21253;-88
2022/07/06 05:26:47;;;;;;;20.92;15.80;;;;;;;33.21;43.03;100720.13;1793987;77;20883;-87
2022/07/06 05:29:14;;;;;;;15.85;13.83;;;;;;;33.34;42.84;100721.77;1783247;80;20911;-86
2022/07/06 05:31:43;;;;;;;21.68;15.00;;;;;;;33.57;42.38;100715.41;1806821;78;20881;-87
2022/07/06 05:34:11;;;;;;;21.70;13.85;;;;;;;33.74;41.79;100714.95;1804692;77;20877;-87
2022/07/06 05:36:38;;;;;;;26.30;15.28;;;;;;;33.85;41.66;100718.16;1794072;77;21259;-87
2022/07/06 05:39:05;;;;;;;26.50;15.30;;;;;;;34.04;40.96;100714.70;1803774;77;20926;-88
2022/07/06 05:41:32;;;;;;;24.98;14.53;;;;;;;34.26;40.49;100721.63;1805287;78;21860;-88
2022/07/06 05:43:59;;;;;;;21.17;14.13;;;;;;;34.46;39.87;100715.69;1813592;77;20900;-87
2022/07/06 05:46:28;;;;;;;26.95;14.98;;;;;;;34.64;39.31;100706.45;1775181;80;21462;-85
2022/07/06 05:51:41;;;;;;;27.90;14.05;;;;;;;34.80;38.73;100704.77;1774765;80;21044;-87
2022/07/06 05:54:08;;;;;;;20.15;14.25;;;;;;;34.88;38.25;100707.06;1782007;77;20963;-86
2022/07/06 05:56:35;;;;;;;28.10;14.20;;;;;;;34.93;38.03;100706.82;1797488;77;20901;-86
2022/07/06 05:59:02;;;;;;;20.65;13.50;;;;;;;35.01;37.76;100715.39;1811106;79;20900;-87
2022/07/06 06:01:31;;;;;;;25.48;14.03;;;;;;;35.16;37.67;100707.17;1799459;77;21230;-88
2022/07/06 06:04:00;;;;;;;22.85;13.70;;;;;;;35.40;37.07;100700.91;1812651;78;20967;-89
2022/07/06 06:06:27;;;;;;;27.30;16.75;;;;;;;35.65;36.73;100706.66;1812072;79;21290;-90
2022/07/06 06:08:54;;;;;;;23.18;15.28;;;;;;;35.88;36.16;100704.15;1811132;77;20885;-88
2022/07/06 06:11:22;;;;;;;24.30;15.40;;;;;;;36.08;35.69;100702.69;1810520;79;20853;-89
2022/07/06 06:13:51;;;;;;;29.75;22.98;;;;;;;36.27;35.27;100703.98;1802952;77;21870;-89
2022/07/06 06:16:18;;;;;;;33.18;26.25;;;;;;;36.51;34.82;100699.52;1791755;77;20859;-89
2022/07/06 06:18:45;;;;;;;35.43;20.90;;;;;;;36.67;33.79;100700.45;1797342;77;20873;-89
2022/07/06 06:21:12;;;;;;;36.03;18.07;;;;;;;36.78;33.06;100704.08;1793368;77;20897;-89
2022/07/06 06:23:40;;;;;;;28.52;19.77;;;;;;;36.93;32.89;100697.29;1777587;80;20892;-88
2022/07/06 06:26:07;;;;;;;18.95;15.75;;;;;;;37.20;32.30;100701.29;1774765;80;21187;-88
2022/07/06 06:28:36;;;;;;;18.65;14.30;;;;;;;37.48;31.04;100701.91;1779886;80;20899;-88
2022/07/06 06:31:03;;;;;;;15.75;11.75;;;;;;;37.71;30.34;100704.19;1772017;81;20948;-88
2022/07/06 06:33:32;;;;;;;19.12;13.72;;;;;;;37.91;29.07;100702.02;1735273;80;20984;-88
2022/07/06 06:35:58;;;;;;;19.27;13.98;;;;;;;38.01;29.43;100701.75;1742338;80;21431;-86
2022/07/06 06:38:25;;;;;;;16.82;15.13;;;;;;;38.10;29.47;100697.39;1740814;82;21139;-87
2022/07/06 06:40:53;;;;;;;13.03;11.73;;;;;;;38.24;29.29;100700.39;1772746;79;20972;-86
2022/07/06 06:43:20;;;;;;;14.45;11.40;;;;;;;38.35;29.00;100695.17;1742504;81;20936;-90
2022/07/06 06:46:01;;;;;;;19.90;9.85;;;;;;;38.54;28.87;100691.34;1741748;82;21572;-88
2022/07/06 06:48:31;;;;;;;19.90;18.40;;;;;;;38.79;28.51;100692.38;1742163;81;20861;-89
2022/07/06 06:50:58;;;;;;;13.28;11.10;;;;;;;39.04;27.70;100684.63;1772990;79;21142;-90
2022/07/06 06:53:25;;;;;;;10.82;8.55;;;;;;;39.17;27.37;100692.23;1740869;80;20935;-88
2022/07/06 06:55:52;;;;;;;14.20;9.50;;;;;;;39.26;26.79;100685.61;1739535;80;20991;-88
2022/07/06 06:58:19;;;;;;;17.35;10.32;;;;;;;39.42;27.05;100682.25;1801580;77;21319;-90
2022/07/06 07:00:47;;;;;;;26.23;23.87;;;;;;;39.61;26.77;100681.86;1801092;78;20985;-89
2022/07/06 07:03:15;;;;;;;24.98;22.45;;;;;;;39.73;26.80;100679.59;1803903;77;20845;-90
2022/07/06 07:05:42;;;;;;;14.45;9.55;;;;;;;39.73;26.94;100680.96;1803071;77;21380;-89
2022/07/06 07:08:09;;;;;;;15.43;13.53;;;;;;;39.82;27.00;100677.58;1808288;77;20856;-90
2022/07/06 07:10:36;;;;;;;14.15;8.45;;;;;;;40.00;27.30;100676.93;1782009;80;20951;-86
2022/07/06 07:13:03;;;;;;;14.50;11.43;;;;;;;40.18;26.97;100675.39;1761225;79;20880;-86
2022/07/06 07:15:30;;;;;;;18.30;11.60;;;;;;;40.36;26.33;100671.94;1718104;80;21100;-87
2022/07/06 07:17:57;;;;;;;13.58;8.25;;;;;;;40.48;26.32;100668.78;1747682;80;20900;-86
2022/07/06 07:20:25;;;;;;;12.43;11.05;;;;;;;40.51;26.29;100672.34;1776016;79;20966;-88
2022/07/06 07:22:56;;;;;;;9.23;7.47;;;;;;;40.65;25.58;100671.64;1772209;79;21365;-87
2022/07/06 07:25:23;;;;;;;9.50;6.33;;;;;;;40.79;25.14;100667.90;1759546;79;20924;-89
2022/07/06 07:27:50;;;;;;;6.35;5.75;;;;;;;40.96;24.90;100665.23;1795152;77;21214;-88
2022/07/06 07:30:17;;;;;;;8.00;5.20;;;;;;;41.11;23.79;100665.03;1793082;77;20814;-89
2022/07/06 07:32:44;;;;;;;4.58;4.08;;;;;;;41.28;23.26;100664.53;1805261;77;20978;-89
2022/07/06 07:35:11;;;;;;;9.50;7.50;;;;;;;41.45;22.40;100672.28;1806500;77;21541;-88
2022/07/06 07:37:39;;;;;;;14.15;13.03;;;;;;;41.59;22.01;100664.92;1810349;77;20833;-87
2022/07/06 07:40:09;;;;;;;4.42;4.12;;;;;;;41.70;21.73;100660.06;1799340;77;21315;-87
2022/07/06 07:42:38;;;;;;;6.97;5.53;;;;;;;41.79;21.32;100656.07;1799188;77;20919;-87
2022/07/06 07:45:08;;;;;;;7.53;5.03;;;;;;;41.88;21.47;100662.52;1789191;77;20921;-87
2022/07/06 07:47:35;;;;;;;12.35;7.22;;;;;;;42.01;21.65;100668.66;1793706;77;20911;-89
2022/07/06 07:50:02;;;;;;;7.62;4.75;;;;;;;42.20;21.87;100665.02;1804012;77;21492;-89
2022/07/06 07:52:29;;;;;;;9.20;4.70;;;;;;;42.31;21.29;100665.65;1810669;79;21086;-88
2022/07/06 07:54:56;;;;;;;13.35;11.97;;;;;;;42.48;20.49;100670.61;1812782;79;20841;-88
2022/07/06 07:57:23;;;;;;;12.90;7.80;;;;;;;42.63;20.46;100664.79;1811298;79;20849;-87
2022/07/06 07:59:50;;;;;;;13.85;6.40;;;;;;;42.65;21.03;100666.11;1793138;77;20868;-89
2022/07/06 08:02:17;;;;;;;9.48;8.53;;;;;;;42.67;20.50;100665.81;1810690;78;20892;-88
2022/07/06 08:04:44;;;;;;;11.38;8.73;;;;;;;42.70;19.17;100667.14;1804843;77;21221;-88
2022/07/06 08:07:11;;;;;;;11.50;9.78;;;;;;;42.74;19.83;100663.45;1801870;77;20971;-88
2022/07/06 08:09:39;;;;;;;10.60;9.53;;;;;;;42.73;19.50;100667.89;1797849;77;20813;-89
2022/07/06 08:12:07;;;;;;;8.20;7.55;;;;;;;42.61;20.16;100667.03;1787771;77;21001;-88
2022/07/06 08:14:34;;;;;;;5.58;4.33;;;;;;;42.56;20.16;100669.91;1801437;77;21061;-88
2022/07/06 08:17:01;;;;;;;4.80;3.90;;;;;;;42.52;20.18;100671.06;1797440;79;21330;-88
2022/07/06 08:19:30;;;;;;;4.58;3.58;;;;;;;42.65;19.62;100669.44;1802285;78;20921;-86
2022/07/06 08:21:57;;;;;;;4.90;4.50;;;;;;;42.74;18.88;100675.87;1794146;77;20973;-85
2022/07/06 08:24:24;;;;;;;3.52;3.22;;;;;;;42.81;18.41;100672.70;1803165;78;20939;-89
2022/07/06 08:26:54;;;;;;;3.58;3.40;;;;;;;42.73;17.75;100672.03;1801657;77;20936;-88
2022/07/06 08:29:21;;;;;;;5.95;5.42;;;;;;;42.73;17.84;100670.08;1794956;77;22022;-89
2022/07/06 08:31:48;;;;;;;4.42;3.08;;;;;;;42.73;18.04;100671.45;1810682;79;20833;-89
2022/07/06 08:34:15;;;;;;;1.72;1.62;;;;;;;42.76;18.26;100668.10;1801262;77;20942;-88
2022/07/06 08:36:42;;;;;;;2.70;1.65;;;;;;;42.87;16.79;100666.52;1794954;77;21069;-87
2022/07/06 08:39:09;;;;;;;2.20;2.08;;;;;;;43.06;16.55;100670.78;1805589;77;20801;-85
2022/07/06 08:41:38;;;;;;;1.22;1.22;;;;;;;43.25;16.73;100672.06;1801980;77;21292;-89
2022/07/06 08:44:05;;;;;;;2.25;2.15;;;;;;;43.34;16.08;100669.38;1790902;77;21398;-88
2022/07/06 08:46:33;;;;;;;2.65;2.45;;;;;;;43.36;15.97;100668.50;1796928;77;20928;-89
2022/07/06 08:49:00;;;;;;;4.30;2.60;;;;;;;43.41;16.21;100659.28;1799875;77;20948;-87
2022/07/06 08:51:27;;;;;;;3.42;2.25;;;;;;;43.37;17.02;100661.84;1792953;78;20892;-89
2022/07/06 08:53:54;;;;;;;3.17;2.12;;;;;;;43.37;16.40;100665.98;1784768;78;21483;-88
2022/07/06 08:56:21;;;;;;;2.80;2.60;;;;;;;43.30;16.20;100660.08;1797794;77;20849;-86
2022/07/06 08:58:48;;;;;;;4.47;2.70;;;;;;;43.32;16.26;100656.45;1811431;78;20853;-88
2022/07/06 09:01:15;;;;;;;2.95;2.75;;;;;;;43.37;16.59;100659.65;1801873;77;20897;-88
2022/07/06 09:03:44;;;;;;;3.25;2.90;;;;;;;43.27;17.14;100652.44;1799170;77;20880;-89
2022/07/06 09:06:11;;;;;;;4.17;2.95;;;;;;;43.29;17.10;100656.24;1810679;79;21774;-88
2022/07/06 09:08:39;;;;;;;3.77;3.12;;;;;;;43.40;17.27;100657.09;1802442;77;20914;-89
2022/07/06 09:11:06;;;;;;;23.20;5.87;;;;;;;43.48;17.55;100651.94;1803074;78;20963;-88
2022/07/06 09:13:33;;;;;;;4.45;3.50;;;;;;;43.57;17.34;100654.20;1808309;79;20908;-88
2022/07/06 09:16:13;;;;;;;3.92;2.95;;;;;;;43.55;17.10;100643.45;1808493;77;21271;-87
2022/07/06 09:18:42;;;;;;;2.92;2.62;;;;;;;43.60;16.61;100648.03;1807476;77;21044;-87
2022/07/06 09:21:09;;;;;;;5.72;2.65;;;;;;;43.60;16.41;100646.11;1797970;77;21442;-89
2022/07/06 09:23:37;;;;;;;3.00;2.80;;;;;;;43.56;16.27;100645.65;1805451;78;20982;-88
2022/07/06 09:26:08;;;;;;;2.85;2.65;;;;;;;43.54;16.18;100646.55;1790483;79;20969;-86
2022/07/06 09:28:45;;;;;;;4.83;2.45;;;;;;;43.62;16.52;100640.25;1810343;77;20845;-88
2022/07/06 09:31:14;;;;;;;4.62;2.37;;;;;;;43.71;16.65;100642.53;1810564;79;20943;-88
2022/07/06 09:33:57;;;;;;;3.60;2.25;;;;;;;43.68;16.75;100638.22;1796192;77;20922;-88
2022/07/06 09:36:44;;;;;;;4.67;2.12;;;;;;;43.74;16.27;100633.63;1807556;79;20943;-88
2022/07/06 09:39:26;;;;;;;3.10;2.02;;;;;;;43.72;15.89;100641.42;1810547;77;20881;-88
2022/07/06 09:41:56;;;;;;;2.90;2.70;;;;;;;43.75;15.66;100636.63;1792007;77;20978;-88
2022/07/06 09:44:33;;;;;;;2.25;1.92;;;;;;;43.82;15.59;100638.95;1810494;77;21244;-89
2022/07/06 09:47:08;;;;;;;2.00;1.90;;;;;;;43.84;15.82;100638.88;1788341;77;21102;-89
2022/07/06 09:49:38;;;;;;;3.98;2.40;;;;;;;43.86;15.89;100631.66;1797868;77;20891;-88
2022/07/06 09:52:10;;;;;;;4.83;2.85;;;;;;;43.83;16.00;100635.88;1809159;77;20897;-87
2022/07/06 09:54:38;;;;;;;4.28;1.90;;;;;;;43.86;15.99;100631.09;1795184;77;20860;-89
2022/07/06 09:57:05;;;;;;;2.37;2.20;;;;;;;43.85;16.08;100628.66;1800132;77;21224;-87
2022/07/06 09:59:34;;;;;;;2.00;1.90;;;;;;;43.67;15.88;100620.84;1807873;77;21492;-90
2022/07/06 10:02:04;;;;;;;2.02;1.60;;;;;;;43.56;15.82;100629.08;1793106;77;21030;-87
2022/07/06 10:04:31;;;;;;;2.92;2.50;;;;;;;43.39;16.15;100628.40;1793849;77;21404;-86
2022/07/06 10:06:59;;;;;;;4.62;2.00;;;;;;;43.19;16.18;100624.14;1809766;79;20852;-88
2022/07/06 10:09:27;;;;;;;2.50;2.15;;;;;;;42.94;16.33;100627.73;1793221;78;21793;-89
2022/07/06 10:12:00;;;;;;;2.85;2.17;;;;;;;42.71;16.16;100623.23;1787834;79;20942;-89
2022/07/06 10:14:33;;;;;;;4.75;2.52;;;;;;;42.42;16.40;100629.89;1793784;78;20872;-88
2022/07/06 10:17:03;;;;;;;3.05;2.30;;;;;;;42.19;16.77;100629.75;1810425;77;20814;-87
2022/07/06 10:19:30;;;;;;;2.72;1.92;;;;;;;41.98;16.75;100623.00;1768617;79;20844;-87
2022/07/06 10:22:01;;;;;;;2.65;2.15;;;;;;;41.82;16.78;100614.98;1790570;77;21080;-88
2022/07/06 10:24:28;;;;;;;2.17;2.00;;;;;;;41.80;16.92;100619.97;1810664;78;20884;-87
2022/07/06 10:26:55;;;;;;;2.83;2.52;;;;;;;41.83;16.99;100613.84;1803443;78;20939;-88
2022/07/06 10:29:22;;;;;;;1.90;1.80;;;;;;;41.91;16.91;100612.88;1809256;78;20901;-87
2022/07/06 10:31:51;;;;;;;4.95;3.00;;;;;;;41.99;17.09;100609.47;1784490;78;20830;-87
2022/07/06 10:34:19;;;;;;;3.50;3.20;;;;;;;42.15;17.01;100608.62;1814564;77;21229;-87
2022/07/06 10:36:53;;;;;;;5.62;3.60;;;;;;;42.18;16.73;100612.12;1799657;77;20853;-86
2022/07/06 10:42:54;;;;;;;6.42;3.70;;;;;;;42.18;16.55;100610.75;1810590;77;21618;-85
2022/07/06 10:45:38;;;;;;;5.53;3.62;;;;;;;42.10;17.08;100604.59;1801861;77;20998;-88
2022/07/06 10:50:54;;;;;;;8.68;4.67;;;;;;;42.26;17.33;100594.89;1886739;75;23108;-88
2022/07/06 10:53:25;;;;;;;7.25;4.35;;;;;;;42.24;17.14;100586.91;1862735;77;20926;-87
2022/07/06 10:55:57;;;;;;;7.35;4.72;;;;;;;42.27;17.28;100584.13;1831402;77;21212;-88
2022/07/06 10:58:43;;;;;;;4.50;4.03;;;;;;;42.34;16.82;100582.34;1862333;76;20942;-89
2022/07/06 11:01:13;;;;;;;4.75;3.42;;;;;;;42.34;17.14;100580.97;1861558;77;20907;-90
2022/07/06 11:04:02;;;;;;;7.00;3.85;;;;;;;42.34;16.85;100579.59;1862209;77;20962;-89
2022/07/06 11:06:38;;;;;;;4.67;3.70;;;;;;;42.32;16.97;100585.41;1861914;77;21022;-88
2022/07/06 11:09:09;;;;;;;9.88;4.70;;;;;;;42.33;17.12;100572.42;1863409;76;21929;-86
2022/07/06 11:11:44;;;;;;;11.93;4.47;;;;;;;42.32;17.12;100566.67;1862412;77;20872;-90
2022/07/06 11:14:19;;;;;;;5.17;3.30;;;;;;;42.35;16.81;100564.09;1861945;77;20902;-88
2022/07/06 11:16:52;;;;;;;5.67;3.90;;;;;;;42.22;16.47;100564.38;1831230;77;20942;-89
2022/07/06 11:19:23;;;;;;;5.62;3.85;;;;;;;42.10;17.07;100563.25;1861720;77;20915;-89
2022/07/06 11:21:53;;;;;;;5.80;4.17;;;;;;;42.03;17.13;100561.70;1861657;77;21733;-89
2022/07/06 11:24:23;;;;;;;4.42;3.65;;;;;;;42.04;17.33;100555.06;1861375;76;21373;-90
2022/07/06 11:26:51;;;;;;;3.85;3.20;;;;;;;41.98;17.20;100554.11;1861448;77;20879;-88
2022/07/06 11:29:23;;;;;;;5.80;4.08;;;;;;;41.81;17.54;100554.66;1861708;77;21341;-89
2022/07/06 11:31:53;;;;;;;4.40;3.98;;;;;;;41.59;17.81;100547.88;1861956;77;21029;-89